createdAt,value
2023-07-01T00:00:31.822Z,11.27
2023-07-01T00:02:58.431Z,16.08
2023-07-01T00:05:24.996Z,11.30
2023-07-01T00:07:51.621Z,15.35
2023-07-01T00:10:18.235Z,12.77
2023-07-01T00:12:45.680Z,13.30
2023-07-01T00:15:12.365Z,15.18
2023-07-01T00:17:39.112Z,8.43
2023-07-01T00:20:06.192Z,9.93
2023-07-01T00:22:32.716Z,12.60
2023-07-01T00:24:59.307Z,13.60
2023-07-01T00:27:25.833Z,11.07
2023-07-01T00:29:52.346Z,10.88
2023-07-01T00:32:18.969Z,20.35
2023-07-01T00:34:46.842Z,14.80
2023-07-01T00:37:13.421Z,13.43
2023-07-01T00:39:40.002Z,12.27
2023-07-01T00:42:08.884Z,13.77
2023-07-01T00:44:36.251Z,9.45
2023-07-01T00:47:03.024Z,12.15
2023-07-01T00:49:29.617Z,14.98
2023-07-01T00:51:57.430Z,15.80
2023-07-01T00:54:24.425Z,14.77
2023-07-01T00:56:50.973Z,14.32
2023-07-01T00:59:17.646Z,10.13
2023-07-01T01:01:48.442Z,13.07
2023-07-01T01:04:24.661Z,15.88
2023-07-01T01:06:55.973Z,10.00
2023-07-01T01:09:31.581Z,14.27
2023-07-01T01:11:59.683Z,14.10
2023-07-01T01:16:53.801Z,11.90
2023-07-01T01:19:31.387Z,8.07
2023-07-01T01:22:13.826Z,11.32
2023-07-01T01:24:42.849Z,10.40
2023-07-01T01:27:14.856Z,13.55
2023-07-01T01:29:42.065Z,9.95
2023-07-01T01:32:09.165Z,12.30
2023-07-01T01:34:35.752Z,10.88
2023-07-01T01:37:06.505Z,10.05
2023-07-01T01:39:37.570Z,11.48
2023-07-01T01:42:09.620Z,11.57
2023-07-01T01:44:48.200Z,11.82
2023-07-01T01:47:20.306Z,12.95
2023-07-01T01:49:48.179Z,12.50
2023-07-01T01:52:16.553Z,11.85
2023-07-01T01:54:45.964Z,11.25
2023-07-01T01:57:12.978Z,11.07
2023-07-01T01:59:39.701Z,13.00
2023-07-01T02:02:06.692Z,11.35
2023-07-01T02:04:33.337Z,16.40
2023-07-01T02:07:00.123Z,15.93
2023-07-01T02:09:26.718Z,10.07
2023-07-01T02:11:53.364Z,13.75
2023-07-01T02:14:19.925Z,18.98
2023-07-01T02:16:46.501Z,16.15
2023-07-01T02:19:13.047Z,13.02
2023-07-01T02:21:39.807Z,10.98
2023-07-01T02:24:06.647Z,8.90
2023-07-01T02:26:33.254Z,12.60
2023-07-01T02:28:59.950Z,12.77
2023-07-01T02:31:26.610Z,10.57
2023-07-01T02:34:00.926Z,13.98
2023-07-01T02:36:27.635Z,17.83
2023-07-01T02:38:54.171Z,10.57
2023-07-01T02:41:20.690Z,9.65
2023-07-01T02:43:47.452Z,13.38
2023-07-01T02:46:14.182Z,11.90
2023-07-01T02:48:40.778Z,9.52
2023-07-01T02:51:08.423Z,14.00
2023-07-01T02:53:34.954Z,11.10
2023-07-01T02:56:03.581Z,11.57
2023-07-01T02:58:30.124Z,12.57
2023-07-01T03:00:56.660Z,13.63
2023-07-01T03:03:24.519Z,13.27
2023-07-01T03:05:51.147Z,15.13
2023-07-01T03:08:17.832Z,13.65
2023-07-01T03:10:44.806Z,12.98
2023-07-01T03:13:11.551Z,13.65
2023-07-01T03:15:38.232Z,14.98
2023-07-01T03:18:04.808Z,14.77
2023-07-01T03:20:31.360Z,12.20
2023-07-01T03:22:59.148Z,14.18
2023-07-01T03:25:26.945Z,12.82
2023-07-01T03:27:53.843Z,14.20
2023-07-01T03:30:24.482Z,14.20
2023-07-01T03:32:51.071Z,15.05
2023-07-01T03:35:17.774Z,15.65
2023-07-01T03:37:45.387Z,12.27
2023-07-01T03:40:12.189Z,15.05
2023-07-01T03:42:39.726Z,11.43
2023-07-01T03:45:08.889Z,14.35
2023-07-01T03:47:40.150Z,11.48
2023-07-01T03:50:09.186Z,12.65
2023-07-01T03:52:41.135Z,13.45
2023-07-01T03:55:09.545Z,15.43
2023-07-01T04:00:09.655Z,13.45
2023-07-01T04:02:39.226Z,13.80
2023-07-01T04:05:11.945Z,11.57
2023-07-01T04:07:40.161Z,12.82
2023-07-01T04:12:34.383Z,10.80
2023-07-01T04:15:01.586Z,14.15
2023-07-01T04:17:29.718Z,11.80
2023-07-01T04:19:57.123Z,15.50
2023-07-01T04:22:27.486Z,12.98
2023-07-01T04:24:54.146Z,15.73
2023-07-01T04:27:20.896Z,12.50
2023-07-01T04:29:47.570Z,12.63
2023-07-01T04:32:14.085Z,11.73
2023-07-01T04:34:40.733Z,11.40
2023-07-01T04:37:07.263Z,10.40
2023-07-01T04:39:33.809Z,12.00
2023-07-01T04:42:00.345Z,9.15
2023-07-01T04:44:26.946Z,10.25
2023-07-01T04:46:53.630Z,9.85
2023-07-01T04:49:20.332Z,8.65
2023-07-01T04:51:46.908Z,9.30
2023-07-01T04:54:13.515Z,10.02
2023-07-01T04:56:40.023Z,11.00
2023-07-01T04:59:06.777Z,8.90
2023-07-01T05:01:33.421Z,11.18
2023-07-01T05:04:00.297Z,12.77
2023-07-01T05:06:27.092Z,8.77
2023-07-01T05:08:54.666Z,11.10
2023-07-01T05:11:21.264Z,10.98
2023-07-01T05:13:47.918Z,10.52
2023-07-01T05:16:16.937Z,10.77
2023-07-01T05:18:46.787Z,11.70
2023-07-01T05:21:20.635Z,10.55
2023-07-01T05:23:47.765Z,10.60
2023-07-01T05:26:16.022Z,8.43
2023-07-01T05:28:43.198Z,10.63
2023-07-01T05:31:10.556Z,11.05
2023-07-01T05:33:37.287Z,11.18
2023-07-01T05:36:04.093Z,11.20
2023-07-01T05:38:30.661Z,13.70
2023-07-01T05:40:57.225Z,12.00
2023-07-01T05:43:23.847Z,11.98
2023-07-01T05:45:50.486Z,11.88
2023-07-01T05:48:17.116Z,12.90
2023-07-01T05:50:43.879Z,11.95
2023-07-01T05:53:10.807Z,13.50
2023-07-01T05:55:37.834Z,11.18
2023-07-01T05:58:04.705Z,14.05
2023-07-01T06:00:32.271Z,11.10
2023-07-01T06:02:59.044Z,12.48
2023-07-01T06:05:26.248Z,12.38
2023-07-01T06:07:53.065Z,12.32
2023-07-01T06:10:19.648Z,12.85
2023-07-01T06:12:46.651Z,11.60
2023-07-01T06:15:13.273Z,11.35
2023-07-01T06:17:40.008Z,10.05
2023-07-01T06:20:07.269Z,11.55
2023-07-01T06:22:33.860Z,11.07
2023-07-01T06:25:00.586Z,12.73
2023-07-01T06:27:27.278Z,10.18
2023-07-01T06:29:53.869Z,9.45
2023-07-01T06:32:20.601Z,14.18
2023-07-01T06:34:47.608Z,10.02
2023-07-01T06:37:14.278Z,9.93
2023-07-01T06:39:40.879Z,9.45
2023-07-01T06:42:07.875Z,10.35
2023-07-01T06:44:34.690Z,9.73
2023-07-01T06:47:02.448Z,9.18
2023-07-01T06:49:29.102Z,7.55
2023-07-01T06:51:55.776Z,6.97
2023-07-01T06:54:22.428Z,8.02
2023-07-01T06:56:49.118Z,7.10
2023-07-01T06:59:15.881Z,6.15
2023-07-01T07:01:42.560Z,6.95
2023-07-01T07:04:09.307Z,6.10
2023-07-01T07:06:36.017Z,5.78
2023-07-01T07:09:03.916Z,5.60
2023-07-01T07:11:31.280Z,4.47
2023-07-01T07:13:58.675Z,4.32
2023-07-01T07:16:27.456Z,4.13
2023-07-01T07:18:54.280Z,5.63
2023-07-01T07:21:21.058Z,3.83
2023-07-01T07:23:47.848Z,4.05
2023-07-01T07:26:15.035Z,5.18
2023-07-01T07:28:41.673Z,4.68
2023-07-01T07:31:08.369Z,6.53
2023-07-01T07:33:35.044Z,4.45
2023-07-01T07:36:01.586Z,5.00
2023-07-01T07:38:28.167Z,3.45
2023-07-01T07:40:54.757Z,4.25
2023-07-01T07:43:21.340Z,4.93
2023-07-01T07:45:47.992Z,4.15
2023-07-01T07:48:14.604Z,5.18
2023-07-01T07:50:41.167Z,4.45
2023-07-01T07:53:08.027Z,4.53
2023-07-01T07:55:35.462Z,4.50
2023-07-01T07:58:02.526Z,3.30
2023-07-01T08:00:29.392Z,2.95
2023-07-01T08:02:56.133Z,2.72
2023-07-01T08:05:23.258Z,3.85
2023-07-01T08:07:49.981Z,2.30
2023-07-01T08:10:17.097Z,2.22
2023-07-01T08:12:43.821Z,1.75
2023-07-01T08:15:11.026Z,5.70
2023-07-01T08:17:37.630Z,1.30
2023-07-01T08:20:05.553Z,2.03
2023-07-01T08:22:32.193Z,2.63
2023-07-01T08:24:59.410Z,2.63
2023-07-01T08:27:26.095Z,4.13
2023-07-01T08:29:52.751Z,5.03
2023-07-01T08:32:19.419Z,4.28
2023-07-01T08:34:46.085Z,3.92
2023-07-01T08:37:12.625Z,4.15
2023-07-01T08:39:39.309Z,5.68
2023-07-01T08:42:10.567Z,4.85
2023-07-01T08:44:39.669Z,3.20
2023-07-01T08:47:06.896Z,4.65
2023-07-01T08:49:35.555Z,6.28
2023-07-01T08:52:11.950Z,5.50
2023-07-01T08:54:38.760Z,7.05
2023-07-01T08:57:05.669Z,8.40
2023-07-01T08:59:32.855Z,10.93
2023-07-01T09:02:02.929Z,9.73
2023-07-01T09:04:29.717Z,11.40
2023-07-01T09:06:56.744Z,12.65
2023-07-01T09:09:23.576Z,10.98
2023-07-01T09:11:50.143Z,8.55
2023-07-01T09:14:16.765Z,13.65
2023-07-01T09:16:43.444Z,12.88
2023-07-01T09:19:23.392Z,13.35
2023-07-01T09:21:50.090Z,11.05
2023-07-01T09:24:17.025Z,14.70
2023-07-01T09:26:43.587Z,14.27
2023-07-01T09:29:12.310Z,13.85
2023-07-01T09:31:49.757Z,14.13
2023-07-01T09:34:18.425Z,13.32
2023-07-01T09:36:45.591Z,12.15
2023-07-01T09:39:12.242Z,11.00
2023-07-01T09:41:39.096Z,15.95
2023-07-01T09:44:20.542Z,15.02
2023-07-01T09:46:48.080Z,13.13
2023-07-01T09:49:14.886Z,10.07
2023-07-01T09:51:50.158Z,13.65
2023-07-01T09:54:30.519Z,16.00
2023-07-01T09:56:59.196Z,14.63
2023-07-01T09:59:26.665Z,11.40
2023-07-01T10:01:56.283Z,12.10
2023-07-01T10:04:27.148Z,13.63
2023-07-01T10:06:55.156Z,15.65
2023-07-01T10:09:24.495Z,15.85
2023-07-01T10:11:53.202Z,14.23
2023-07-01T10:14:23.230Z,15.70
2023-07-01T10:16:50.448Z,18.52
2023-07-01T10:19:27.365Z,13.68
2023-07-01T10:21:54.960Z,14.93
2023-07-01T10:24:40.222Z,12.80
2023-07-01T10:27:06.921Z,11.98
2023-07-01T10:29:34.479Z,15.00
2023-07-01T10:32:10.328Z,13.60
2023-07-01T10:34:56.093Z,11.75
2023-07-01T10:37:24.417Z,11.88
2023-07-01T10:39:51.432Z,15.68
2023-07-01T10:42:33.234Z,15.13
2023-07-01T10:45:12.135Z,18.05
2023-07-01T10:47:44.197Z,13.82
2023-07-01T10:50:15.748Z,12.18
2023-07-01T10:53:00.504Z,10.77
2023-07-01T10:55:45.637Z,12.20
2023-07-01T10:58:24.715Z,14.23
2023-07-01T11:00:58.417Z,14.60
2023-07-01T11:03:37.971Z,15.40
2023-07-01T11:06:05.966Z,13.18
2023-07-01T11:08:34.588Z,12.43
2023-07-01T11:11:01.222Z,10.00
2023-07-01T11:13:27.827Z,11.73
2023-07-01T11:16:24.115Z,10.20
2023-07-01T11:18:52.294Z,9.32
2023-07-01T11:21:26.772Z,11.50
2023-07-01T11:23:58.774Z,7.90
2023-07-01T11:26:27.755Z,9.07
2023-07-01T11:28:54.409Z,10.10
2023-07-01T11:31:26.664Z,9.95
2023-07-01T11:33:55.406Z,7.43
2023-07-01T11:36:36.136Z,9.98
2023-07-01T11:41:37.459Z,9.15
2023-07-01T11:44:05.448Z,10.40
2023-07-01T11:49:22.400Z,8.48
2023-07-01T11:51:54.418Z,13.32
2023-07-01T11:54:23.741Z,10.85
2023-07-01T11:56:54.188Z,11.43
2023-07-01T11:59:35.271Z,13.20
2023-07-01T12:02:02.254Z,8.32
2023-07-01T12:04:29.464Z,10.40
2023-07-01T12:07:25.701Z,13.40
2023-07-01T12:09:52.517Z,9.93
2023-07-01T12:12:36.889Z,8.35
2023-07-01T12:15:13.065Z,12.32
2023-07-01T12:17:40.085Z,7.07
2023-07-01T12:20:09.636Z,6.68
2023-07-01T12:22:37.064Z,8.40
2023-07-01T12:25:04.516Z,6.80
2023-07-01T12:27:31.668Z,8.35
2023-07-01T12:29:58.419Z,6.32
2023-07-01T12:32:26.200Z,17.08
2023-07-01T12:34:53.732Z,11.88
2023-07-01T12:37:20.886Z,6.63
2023-07-01T12:39:51.552Z,8.95
2023-07-01T12:42:18.165Z,8.32
2023-07-01T12:44:46.039Z,11.75
2023-07-01T12:49:41.242Z,8.50
2023-07-01T12:52:08.049Z,7.68
2023-07-01T12:54:34.829Z,6.22
2023-07-01T12:57:02.734Z,5.60
2023-07-01T12:59:29.470Z,5.50
2023-07-01T13:01:56.507Z,5.25
2023-07-01T13:04:23.463Z,7.78
2023-07-01T13:06:50.325Z,7.55
2023-07-01T13:09:19.436Z,5.95
2023-07-01T13:11:47.151Z,5.95
2023-07-01T13:14:15.035Z,6.00
2023-07-01T13:16:43.545Z,7.75
2023-07-01T13:19:15.235Z,8.43
2023-07-01T13:21:50.647Z,5.38
2023-07-01T13:24:17.760Z,11.02
2023-07-01T13:26:46.580Z,8.48
2023-07-01T13:29:15.174Z,8.98
2023-07-01T13:31:42.742Z,8.93
2023-07-01T13:34:09.880Z,5.50
2023-07-01T13:36:38.252Z,5.20
2023-07-01T13:39:14.127Z,6.20
2023-07-01T13:41:40.794Z,4.38
2023-07-01T13:44:36.908Z,5.45
2023-07-01T13:47:03.716Z,6.88
2023-07-01T13:49:30.850Z,5.88
2023-07-01T13:51:57.774Z,7.40
2023-07-01T13:54:26.603Z,5.00
2023-07-01T13:56:54.875Z,9.00
2023-07-01T13:59:22.723Z,13.18
2023-07-01T14:02:18.731Z,7.90
2023-07-01T14:04:45.311Z,5.05
2023-07-01T14:07:17.182Z,7.50
2023-07-01T14:09:44.105Z,8.15
2023-07-01T14:12:11.823Z,3.10
2023-07-01T14:14:38.585Z,4.22
2023-07-01T14:17:07.068Z,5.93
2023-07-01T14:19:37.450Z,3.65
2023-07-01T14:22:04.180Z,5.40
2023-07-01T14:24:34.687Z,8.45
2023-07-01T14:27:01.618Z,5.25
2023-07-01T14:29:28.850Z,4.57
2023-07-01T14:31:57.442Z,4.57
2023-07-01T14:34:32.980Z,6.93
2023-07-01T14:37:00.118Z,3.83
2023-07-01T14:39:47.050Z,5.93
2023-07-01T14:42:24.660Z,10.07
2023-07-01T14:44:52.181Z,3.63
2023-07-01T14:47:18.816Z,4.72
2023-07-01T14:49:45.457Z,5.07
2023-07-01T14:52:12.113Z,5.32
2023-07-01T14:54:38.983Z,3.88
2023-07-01T14:57:05.954Z,11.55
2023-07-01T14:59:32.923Z,3.95
2023-07-01T15:02:00.622Z,2.85
2023-07-01T15:04:27.638Z,4.15
2023-07-01T15:06:54.584Z,4.05
2023-07-01T15:09:21.218Z,3.80
2023-07-01T15:11:47.776Z,2.67
2023-07-01T15:14:14.502Z,3.50
2023-07-01T15:16:41.164Z,3.15
2023-07-01T15:19:08.033Z,4.60
2023-07-01T15:21:34.653Z,2.13
2023-07-01T15:24:01.249Z,7.10
2023-07-01T15:26:27.940Z,2.92
2023-07-01T15:28:54.515Z,2.67
2023-07-01T15:31:21.170Z,6.25
2023-07-01T15:33:47.882Z,0.93
2023-07-01T15:36:14.471Z,3.47
2023-07-01T15:38:41.141Z,2.78
2023-07-01T15:41:08.528Z,3.50
2023-07-01T15:43:35.170Z,8.07
2023-07-01T15:46:01.782Z,1.77
2023-07-01T15:48:29.821Z,2.00
2023-07-01T15:50:57.549Z,4.07
2023-07-01T15:53:24.992Z,3.58
2023-07-01T15:55:54.129Z,5.78
2023-07-01T15:58:21.102Z,3.67
2023-07-01T16:00:47.916Z,4.53
2023-07-01T16:03:14.925Z,3.60
2023-07-01T16:05:41.582Z,4.53
2023-07-01T16:08:13.198Z,4.32
2023-07-01T16:10:40.109Z,2.40
2023-07-01T16:13:07.375Z,4.10
2023-07-01T16:16:01.132Z,3.17
2023-07-01T16:18:30.724Z,4.07
2023-07-01T16:21:03.390Z,2.47
2023-07-01T16:23:31.467Z,2.05
2023-07-01T16:25:59.412Z,9.23
2023-07-01T16:28:45.049Z,5.68
2023-07-01T16:31:18.784Z,7.93
2023-07-01T16:33:45.506Z,6.72
2023-07-01T16:36:17.032Z,3.95
2023-07-01T16:38:44.065Z,3.00
2023-07-01T16:41:11.177Z,3.03
2023-07-01T16:43:42.225Z,5.85
2023-07-01T16:46:12.598Z,9.68
2023-07-01T16:48:46.239Z,19.45
2023-07-01T16:51:16.367Z,6.28
2023-07-01T16:53:47.773Z,4.43
2023-07-01T16:56:15.909Z,4.13
2023-07-01T16:58:50.311Z,3.88
2023-07-01T17:01:31.396Z,4.07
2023-07-01T17:03:58.162Z,8.70
2023-07-01T17:06:45.695Z,4.63
2023-07-01T17:09:37.270Z,4.38
2023-07-01T17:12:04.228Z,9.80
2023-07-01T17:14:49.148Z,3.80
2023-07-01T17:17:33.957Z,4.38
2023-07-01T17:20:10.271Z,5.47
2023-07-01T17:22:39.180Z,6.03
2023-07-01T17:25:06.234Z,7.80
2023-07-01T17:27:32.984Z,3.45
2023-07-01T17:30:00.350Z,5.78
2023-07-01T17:32:27.128Z,10.02
2023-07-01T17:35:05.893Z,3.47
2023-07-01T17:37:32.456Z,4.07
2023-07-01T17:39:59.291Z,5.43
2023-07-01T17:42:25.962Z,4.95
2023-07-01T17:45:03.954Z,3.88
2023-07-01T17:47:30.686Z,5.80
2023-07-01T17:50:10.513Z,3.08
2023-07-01T17:52:45.523Z,3.25
2023-07-01T17:55:14.981Z,4.13
2023-07-01T17:57:54.014Z,5.53
2023-07-01T18:00:21.961Z,6.32
2023-07-01T18:02:48.749Z,4.38
2023-07-01T18:05:16.032Z,5.03
2023-07-01T18:07:43.686Z,3.95
2023-07-01T18:10:11.362Z,3.55
2023-07-01T18:12:39.717Z,5.47
2023-07-01T18:15:14.829Z,5.03
2023-07-01T18:17:42.722Z,7.28
2023-07-01T18:20:09.721Z,4.55
2023-07-01T18:22:37.650Z,2.65
2023-07-01T18:25:05.313Z,6.47
2023-07-01T18:27:32.689Z,5.95
2023-07-01T18:29:59.248Z,3.97
2023-07-01T18:32:26.296Z,4.82
2023-07-01T18:34:53.115Z,7.03
2023-07-01T18:37:19.736Z,11.25
2023-07-01T18:39:47.463Z,5.90
2023-07-01T18:42:14.153Z,3.75
2023-07-01T18:44:40.862Z,8.02
2023-07-01T18:47:07.681Z,4.10
2023-07-01T18:49:34.283Z,4.90
2023-07-01T18:52:03.897Z,3.72
2023-07-01T18:54:30.856Z,6.55
2023-07-01T18:56:57.484Z,5.70
2023-07-01T18:59:24.013Z,4.80
2023-07-01T19:01:50.759Z,7.80
2023-07-01T19:04:17.396Z,8.52
2023-07-01T19:06:43.984Z,8.20
2023-07-01T19:09:11.571Z,4.97
2023-07-01T19:11:38.146Z,5.72
2023-07-01T19:14:04.788Z,11.75
2023-07-01T19:16:31.455Z,6.10
2023-07-01T19:18:58.107Z,6.95
2023-07-01T19:21:24.742Z,5.55
2023-07-01T19:23:51.377Z,5.28
2023-07-01T19:26:17.904Z,8.73
2023-07-01T19:28:45.043Z,6.30
2023-07-01T19:31:11.870Z,9.48
2023-07-01T19:33:39.874Z,5.13
2023-07-01T19:38:33.434Z,10.05
2023-07-01T19:41:00.067Z,9.77
2023-07-01T19:43:26.694Z,4.38
2023-07-01T19:45:54.084Z,7.43
2023-07-01T19:48:20.839Z,5.70
2023-07-01T19:50:47.528Z,7.68
2023-07-01T19:53:15.394Z,5.57
2023-07-01T19:58:09.299Z,5.82
2023-07-01T20:00:38.925Z,4.90
2023-07-01T20:03:06.002Z,8.13
2023-07-01T20:05:32.773Z,7.15
2023-07-01T20:07:59.590Z,7.35
2023-07-01T20:10:30.830Z,5.55
2023-07-01T20:12:59.634Z,11.75
2023-07-01T20:15:26.954Z,8.73
2023-07-01T20:17:53.629Z,14.07
2023-07-01T20:20:20.327Z,7.75
2023-07-01T20:22:47.233Z,10.60
2023-07-01T20:25:13.908Z,11.90
2023-07-01T20:27:40.519Z,11.65
2023-07-01T20:30:11.230Z,16.40
2023-07-01T20:32:38.586Z,10.57
2023-07-01T20:35:06.332Z,7.78
2023-07-01T20:37:33.403Z,12.90
2023-07-01T20:40:00.491Z,13.70
2023-07-01T20:42:27.387Z,13.25
2023-07-01T20:44:54.204Z,13.65
2023-07-01T20:47:21.218Z,11.48
2023-07-01T20:49:48.749Z,11.18
2023-07-01T20:52:16.454Z,10.23
2023-07-01T20:54:43.758Z,13.55
2023-07-01T20:57:10.745Z,13.15
2023-07-01T20:59:37.393Z,14.13
2023-07-01T21:02:04.564Z,14.05
2023-07-01T21:04:31.441Z,11.15
2023-07-01T21:06:58.239Z,15.82
2023-07-01T21:09:24.854Z,15.10
2023-07-01T21:11:51.427Z,12.00
2023-07-01T21:14:18.396Z,14.90
2023-07-01T21:16:46.741Z,11.68
2023-07-01T21:19:13.916Z,15.48
2023-07-01T21:21:40.606Z,15.00
2023-07-01T21:24:07.821Z,12.25
2023-07-01T21:26:37.027Z,15.93
2023-07-01T21:29:05.575Z,20.60
2023-07-01T21:31:33.528Z,14.30
2023-07-01T21:36:27.032Z,19.17
2023-07-01T21:38:53.906Z,26.65
2023-07-01T21:41:20.734Z,22.70
2023-07-01T21:43:49.631Z,25.98
2023-07-01T21:46:16.918Z,23.50
2023-07-01T21:48:43.746Z,23.60
2023-07-01T21:51:11.452Z,29.90
2023-07-01T21:53:45.604Z,30.80
2023-07-01T21:56:14.158Z,29.02
2023-07-01T21:58:47.697Z,32.63
2023-07-01T22:01:18.188Z,29.25
2023-07-01T22:03:45.922Z,34.85
2023-07-01T22:06:14.597Z,31.70
2023-07-01T22:08:42.701Z,32.75
2023-07-01T22:13:36.301Z,30.58
2023-07-01T22:16:03.523Z,36.95
2023-07-01T22:18:30.611Z,28.20
2023-07-01T22:20:58.481Z,32.58
2023-07-01T22:25:51.882Z,32.88
2023-07-01T22:28:18.539Z,29.70
2023-07-01T22:30:45.863Z,29.30
2023-07-01T22:33:13.066Z,29.48
2023-07-01T22:35:39.748Z,29.02
2023-07-01T22:38:06.351Z,27.63
2023-07-01T22:40:32.916Z,26.50
2023-07-01T22:42:59.489Z,21.05
2023-07-01T22:45:26.113Z,26.48
2023-07-01T22:47:52.804Z,25.77
2023-07-01T22:50:20.810Z,18.92
2023-07-01T22:55:14.413Z,27.80
2023-07-01T22:57:41.252Z,22.67
2023-07-01T23:00:10.305Z,26.60
2023-07-01T23:02:38.115Z,27.88
2023-07-01T23:05:05.746Z,26.20
2023-07-01T23:07:32.468Z,32.92
2023-07-01T23:10:01.156Z,32.20
2023-07-01T23:12:31.116Z,23.17
2023-07-01T23:14:58.014Z,26.63
2023-07-01T23:17:25.115Z,22.25
2023-07-01T23:19:54.068Z,15.45
2023-07-01T23:22:22.136Z,11.75
2023-07-01T23:27:18.490Z,12.02
2023-07-01T23:29:46.302Z,9.55
2023-07-01T23:32:14.842Z,12.75
2023-07-01T23:34:50.927Z,8.57
2023-07-01T23:37:18.405Z,8.82
2023-07-01T23:39:45.388Z,16.00
2023-07-01T23:42:13.548Z,15.75
2023-07-01T23:44:40.188Z,14.68
2023-07-01T23:47:07.714Z,16.80
2023-07-01T23:49:35.212Z,20.90
2023-07-01T23:52:02.408Z,22.92
2023-07-01T23:54:29.124Z,23.92
2023-07-01T23:56:56.072Z,30.75
2023-07-01T23:59:22.724Z,20.10
